createdAt,value
2022-11-14T00:01:56.885Z,2.70
2022-11-14T00:05:58.469Z,2.70
2022-11-14T00:10:00.628Z,2.70
2022-11-14T00:14:02.253Z,2.60
2022-11-14T00:18:04.066Z,2.50
2022-11-14T00:22:05.958Z,2.50
2022-11-14T00:26:07.607Z,2.50
2022-11-14T00:30:09.559Z,2.40
2022-11-14T00:34:11.310Z,2.40
2022-11-14T00:38:12.926Z,2.40
2022-11-14T00:42:14.583Z,2.40
2022-11-14T00:46:16.988Z,2.40
2022-11-14T00:50:18.761Z,2.40
2022-11-14T00:54:20.396Z,2.30
2022-11-14T00:58:22.193Z,2.30
2022-11-14T01:02:24.138Z,2.30
2022-11-14T01:06:25.818Z,2.20
2022-11-14T01:10:27.776Z,2.30
2022-11-14T01:14:29.396Z,2.30
2022-11-14T01:18:31.472Z,2.20
2022-11-14T01:22:33.515Z,2.20
2022-11-14T01:26:35.174Z,2.10
2022-11-14T01:30:37.642Z,2.10
2022-11-14T01:34:39.273Z,2.10
2022-11-14T01:38:40.879Z,2.10
2022-11-14T01:42:42.586Z,2.00
2022-11-14T01:46:49.945Z,2.00
2022-11-14T01:50:57.265Z,2.00
2022-11-14T01:55:02.199Z,2.00
2022-11-14T01:59:09.368Z,2.00
2022-11-14T02:03:14.437Z,1.90
2022-11-14T02:07:17.448Z,1.90
2022-11-14T02:11:19.241Z,1.80
2022-11-14T02:15:21.410Z,1.80
2022-11-14T02:19:23.047Z,1.80
2022-11-14T02:23:27.249Z,1.70
2022-11-14T02:27:30.358Z,1.70
2022-11-14T02:31:32.058Z,1.70
2022-11-14T02:35:33.734Z,1.70
2022-11-14T02:39:35.408Z,1.60
2022-11-14T02:43:37.051Z,1.60
2022-11-14T02:47:38.841Z,1.60
2022-11-14T02:51:41.206Z,1.50
2022-11-14T02:55:42.866Z,1.50
2022-11-14T02:59:44.499Z,1.50
2022-11-14T03:03:46.131Z,1.50
2022-11-14T03:07:48.246Z,1.50
2022-11-14T03:11:49.874Z,1.50
2022-11-14T03:15:51.524Z,1.50
2022-11-14T03:19:53.137Z,1.40
2022-11-14T03:23:54.786Z,1.40
2022-11-14T03:27:56.398Z,1.30
2022-11-14T03:31:58.096Z,1.30
2022-11-14T03:35:59.727Z,1.30
2022-11-14T03:40:01.495Z,1.30
2022-11-14T03:44:03.237Z,1.30
2022-11-14T03:48:08.072Z,1.20
2022-11-14T03:52:09.675Z,1.30
2022-11-14T03:56:11.309Z,1.30
2022-11-14T04:00:13.440Z,1.30
2022-11-14T04:04:15.146Z,1.30
2022-11-14T04:08:17.118Z,1.30
2022-11-14T04:12:18.888Z,1.30
2022-11-14T04:16:20.538Z,1.30
2022-11-14T04:20:22.195Z,1.30
2022-11-14T04:24:23.830Z,1.30
2022-11-14T04:28:25.462Z,1.30
2022-11-14T04:32:27.106Z,1.40
2022-11-14T04:36:28.753Z,1.30
2022-11-14T04:40:30.385Z,1.30
2022-11-14T04:44:32.143Z,1.30
2022-11-14T04:48:33.839Z,1.30
2022-11-14T04:52:35.513Z,1.40
2022-11-14T04:56:37.129Z,1.50
2022-11-14T05:00:39.302Z,1.60
2022-11-14T05:04:40.943Z,1.60
2022-11-14T05:08:42.558Z,1.70
2022-11-14T05:12:44.254Z,1.60
2022-11-14T05:16:45.860Z,1.60
2022-11-14T05:20:47.462Z,1.60
2022-11-14T05:24:49.789Z,1.60
2022-11-14T05:28:51.422Z,1.70
2022-11-14T05:32:53.063Z,1.80
2022-11-14T05:36:54.900Z,1.70
2022-11-14T05:40:56.581Z,1.70
2022-11-14T05:44:58.258Z,1.70
2022-11-14T05:48:59.993Z,1.80
2022-11-14T05:53:01.612Z,1.80
2022-11-14T05:57:04.069Z,1.90
2022-11-14T06:01:08.638Z,2.00
2022-11-14T06:05:10.269Z,2.20
2022-11-14T06:09:11.933Z,2.30
2022-11-14T06:13:13.637Z,2.30
2022-11-14T06:17:15.270Z,2.30
2022-11-14T06:21:20.332Z,2.30
2022-11-14T06:25:21.955Z,2.30
2022-11-14T06:29:23.578Z,2.30
2022-11-14T06:33:25.626Z,2.30
2022-11-14T06:37:31.375Z,2.20
2022-11-14T06:41:35.148Z,2.20
2022-11-14T06:45:36.765Z,2.20
2022-11-14T06:49:40.733Z,2.30
2022-11-14T06:53:43.575Z,2.20
2022-11-14T06:57:45.206Z,2.20
2022-11-14T07:01:46.818Z,2.30
2022-11-14T07:05:48.823Z,2.40
2022-11-14T07:09:50.450Z,2.40
2022-11-14T07:14:02.580Z,2.50
2022-11-14T07:18:04.348Z,2.40
2022-11-14T07:22:05.991Z,2.60
2022-11-14T07:26:09.949Z,2.80
2022-11-14T07:30:11.958Z,3.00
2022-11-14T07:34:13.768Z,3.20
2022-11-14T07:38:15.410Z,3.40
2022-11-14T07:42:17.122Z,3.60
2022-11-14T07:46:19.049Z,3.70
2022-11-14T07:50:20.830Z,3.80
2022-11-14T07:54:22.526Z,3.90
2022-11-14T07:58:24.169Z,4.20
2022-11-14T08:02:25.779Z,4.60
2022-11-14T08:06:27.841Z,5.00
2022-11-14T08:10:33.417Z,5.30
2022-11-14T08:14:35.729Z,5.50
2022-11-14T08:18:37.407Z,5.80
2022-11-14T08:22:39.028Z,5.80
2022-11-14T08:26:40.674Z,6.10
2022-11-14T08:30:42.318Z,6.30
2022-11-14T08:34:43.973Z,6.40
2022-11-14T08:38:45.598Z,6.70
2022-11-14T08:42:47.278Z,6.80
2022-11-14T08:46:50.488Z,6.90
2022-11-14T08:50:52.298Z,7.00
2022-11-14T08:54:53.977Z,7.20
2022-11-14T08:58:55.668Z,7.30
2022-11-14T09:02:57.327Z,7.20
2022-11-14T09:06:59.129Z,7.30
2022-11-14T09:11:05.204Z,7.30
2022-11-14T09:15:08.126Z,7.50
2022-11-14T09:19:09.829Z,7.50
2022-11-14T09:23:11.736Z,7.50
2022-11-14T09:27:14.017Z,7.50
2022-11-14T09:31:15.758Z,7.50
2022-11-14T09:35:17.920Z,7.60
2022-11-14T09:39:19.537Z,7.50
2022-11-14T09:43:45.506Z,7.50
2022-11-14T09:48:02.134Z,7.60
2022-11-14T09:52:47.581Z,7.60
2022-11-14T09:56:49.747Z,7.80
2022-11-14T10:00:57.608Z,7.80
2022-11-14T10:05:13.714Z,7.70
2022-11-14T10:09:30.913Z,7.80
2022-11-14T10:13:59.493Z,7.80
2022-11-14T10:18:29.193Z,7.70
2022-11-14T10:23:05.721Z,7.80
2022-11-14T10:27:27.523Z,7.80
2022-11-14T10:31:40.842Z,7.90
2022-11-14T10:36:18.350Z,7.80
2022-11-14T10:40:29.350Z,8.00
2022-11-14T10:44:38.463Z,8.10
2022-11-14T10:48:46.994Z,8.20
2022-11-14T10:52:56.457Z,8.20
2022-11-14T10:56:58.625Z,8.20
2022-11-14T11:01:38.687Z,8.40
2022-11-14T11:05:59.730Z,8.40
2022-11-14T11:10:20.612Z,8.50
2022-11-14T11:14:23.032Z,8.50
2022-11-14T11:18:35.451Z,8.50
2022-11-14T11:22:38.582Z,8.60
2022-11-14T11:26:40.292Z,8.70
2022-11-14T11:30:56.688Z,8.80
2022-11-14T11:35:01.250Z,9.10
2022-11-14T11:39:02.986Z,9.20
2022-11-14T11:43:38.808Z,9.40
2022-11-14T11:47:42.814Z,9.30
2022-11-14T11:51:46.183Z,9.50
2022-11-14T11:55:52.222Z,9.50
2022-11-14T12:00:01.594Z,9.50
2022-11-14T12:04:04.310Z,9.70
2022-11-14T12:08:36.354Z,9.80
2022-11-14T12:12:44.111Z,10.00
2022-11-14T12:17:30.114Z,10.00
2022-11-14T12:21:54.242Z,9.80
2022-11-14T12:26:09.743Z,9.70
2022-11-14T12:30:23.717Z,9.70
2022-11-14T12:34:32.304Z,9.80
2022-11-14T12:38:53.533Z,9.80
2022-11-14T12:42:57.547Z,9.90
2022-11-14T12:47:05.357Z,9.90
2022-11-14T12:51:27.376Z,10.00
2022-11-14T12:55:29.028Z,10.10
2022-11-14T12:59:49.037Z,9.90
2022-11-14T13:03:59.795Z,9.90
2022-11-14T13:08:13.344Z,9.90
2022-11-14T13:12:50.540Z,9.90
2022-11-14T13:17:10.935Z,9.90
2022-11-14T13:21:46.121Z,9.90
2022-11-14T13:25:47.982Z,9.90
2022-11-14T13:29:49.730Z,9.80
2022-11-14T13:33:59.994Z,9.70
2022-11-14T13:38:22.574Z,9.70
2022-11-14T13:43:01.508Z,9.60
2022-11-14T13:47:15.148Z,9.50
2022-11-14T13:51:42.320Z,9.50
2022-11-14T13:55:52.548Z,9.50
2022-11-14T14:00:19.586Z,9.30
2022-11-14T14:04:46.695Z,9.30
2022-11-14T14:09:09.368Z,9.30
2022-11-14T14:13:52.431Z,9.30
2022-11-14T14:18:08.794Z,9.20
2022-11-14T14:22:40.708Z,9.20
2022-11-14T14:27:19.939Z,9.20
2022-11-14T14:31:23.320Z,9.10
2022-11-14T14:35:27.917Z,9.20
2022-11-14T14:39:29.829Z,9.40
2022-11-14T14:43:35.123Z,9.30
2022-11-14T14:47:41.453Z,9.30
2022-11-14T14:51:44.347Z,9.30
2022-11-14T14:55:53.198Z,9.30
2022-11-14T15:00:04.030Z,9.20
2022-11-14T15:04:08.765Z,9.20
2022-11-14T15:08:16.358Z,9.20
2022-11-14T15:12:18.216Z,9.10
2022-11-14T15:16:21.261Z,9.10
2022-11-14T15:20:28.682Z,9.10
2022-11-14T15:24:30.780Z,9.10
2022-11-14T15:28:33.733Z,9.10
2022-11-14T15:32:35.731Z,9.20
2022-11-14T15:36:57.355Z,9.10
2022-11-14T15:41:22.587Z,9.00
2022-11-14T15:45:40.117Z,9.00
2022-11-14T15:49:51.320Z,9.00
2022-11-14T15:53:54.376Z,8.90
2022-11-14T15:58:26.005Z,8.90
2022-11-14T16:02:22.818Z,8.90
2022-11-14T16:06:24.442Z,8.80
2022-11-14T16:10:27.977Z,8.90
2022-11-14T16:14:29.638Z,8.80
2022-11-14T16:18:31.281Z,8.80
2022-11-14T16:22:33.002Z,8.80
2022-11-14T16:26:35.872Z,8.80
2022-11-14T16:30:37.698Z,8.70
2022-11-14T16:34:39.362Z,8.70
2022-11-14T16:38:41.002Z,8.70
2022-11-14T16:42:43.121Z,8.60
2022-11-14T16:46:45.725Z,8.60
2022-11-14T16:50:47.460Z,8.70
2022-11-14T16:54:49.142Z,8.80
2022-11-14T16:58:55.545Z,8.70
2022-11-14T17:02:57.188Z,8.70
2022-11-14T17:06:58.891Z,8.60
2022-11-14T17:11:00.589Z,8.70
2022-11-14T17:15:02.198Z,8.60
2022-11-14T17:19:04.110Z,8.70
2022-11-14T17:23:05.734Z,8.60
2022-11-14T17:27:08.397Z,8.60
2022-11-14T17:31:10.518Z,8.60
2022-11-14T17:35:12.255Z,8.60
2022-11-14T17:39:14.189Z,8.60
2022-11-14T17:43:16.936Z,8.60
2022-11-14T17:47:19.592Z,8.70
2022-11-14T17:51:21.262Z,8.70
2022-11-14T17:55:22.855Z,8.80
2022-11-14T17:59:24.617Z,8.80
2022-11-14T18:03:27.289Z,8.80
2022-11-14T18:07:30.266Z,8.80
2022-11-14T18:11:32.415Z,8.80
2022-11-14T18:15:34.460Z,8.80
2022-11-14T18:19:36.850Z,8.80
2022-11-14T18:23:38.696Z,8.70
2022-11-14T18:27:40.487Z,8.70
2022-11-14T18:31:42.160Z,8.70
2022-11-14T18:35:43.807Z,8.70
2022-11-14T18:39:45.444Z,8.70
2022-11-14T18:43:47.905Z,8.60
2022-11-14T18:47:49.540Z,8.70
2022-11-14T18:51:51.125Z,8.80
2022-11-14T18:55:53.096Z,8.80
2022-11-14T18:59:54.728Z,9.00
2022-11-14T19:04:00.891Z,8.90
2022-11-14T19:08:03.180Z,8.70
2022-11-14T19:12:23.941Z,8.70
2022-11-14T19:16:25.554Z,8.50
2022-11-14T19:20:27.200Z,8.40
2022-11-14T19:24:28.783Z,8.30
2022-11-14T19:28:30.619Z,8.20
2022-11-14T19:32:34.189Z,8.00
2022-11-14T19:41:03.485Z,7.90
2022-11-14T19:45:06.815Z,7.90
2022-11-14T19:49:08.428Z,7.80
2022-11-14T19:53:10.197Z,7.70
2022-11-14T19:57:12.091Z,7.70
2022-11-14T20:01:19.489Z,7.70
2022-11-14T20:05:21.215Z,7.60
2022-11-14T20:09:22.984Z,7.50
2022-11-14T20:13:24.912Z,7.50
2022-11-14T20:17:26.738Z,7.40
2022-11-14T20:21:31.886Z,7.50
2022-11-14T20:25:35.914Z,7.50
2022-11-14T20:29:37.584Z,7.40
2022-11-14T20:33:41.718Z,7.50
2022-11-14T20:37:43.404Z,7.60
2022-11-14T20:41:45.163Z,7.60
2022-11-14T20:46:00.900Z,7.60
2022-11-14T20:50:03.386Z,7.70
2022-11-14T20:54:05.108Z,7.70
2022-11-14T20:58:06.808Z,7.80
2022-11-14T21:02:11.500Z,7.70
2022-11-14T21:06:14.588Z,7.80
2022-11-14T21:10:35.132Z,7.90
2022-11-14T21:14:36.752Z,7.90
2022-11-14T21:18:40.015Z,8.00
2022-11-14T21:22:43.438Z,8.10
2022-11-14T21:26:45.065Z,8.10
2022-11-14T21:30:46.715Z,8.20
2022-11-14T21:34:48.300Z,8.20
2022-11-14T21:38:50.010Z,8.20
2022-11-14T21:42:51.655Z,8.30
2022-11-14T21:46:53.422Z,8.20
2022-11-14T21:51:01.619Z,8.20
2022-11-14T21:55:03.733Z,8.20
2022-11-14T21:59:16.135Z,8.20
2022-11-14T22:03:37.262Z,8.30
2022-11-14T22:07:41.851Z,8.30
2022-11-14T22:11:43.481Z,8.40
2022-11-14T22:15:45.258Z,8.40
2022-11-14T22:19:46.887Z,8.40
2022-11-14T22:23:48.693Z,8.60
2022-11-14T22:27:53.772Z,8.60
2022-11-14T22:31:56.699Z,8.80
2022-11-14T22:36:13.118Z,8.80
2022-11-14T22:40:15.037Z,8.80
2022-11-14T22:44:16.684Z,8.90
2022-11-14T22:48:18.405Z,9.00
2022-11-14T22:52:20.037Z,9.00
2022-11-14T22:56:24.091Z,9.10
2022-11-14T23:00:25.698Z,9.20
2022-11-14T23:04:27.641Z,9.30
2022-11-14T23:08:29.277Z,9.40
2022-11-14T23:12:30.938Z,9.40
2022-11-14T23:16:33.882Z,9.50
2022-11-14T23:20:36.207Z,9.60
2022-11-14T23:24:37.805Z,9.60
2022-11-14T23:28:40.145Z,9.70
2022-11-14T23:32:41.798Z,9.70
2022-11-14T23:36:43.370Z,9.80
2022-11-14T23:40:50.849Z,9.80
2022-11-14T23:44:52.510Z,9.90
2022-11-14T23:48:54.346Z,10.10
2022-11-14T23:52:56.034Z,10.10
2022-11-14T23:57:02.911Z,10.10
